Santa Rosa, CA (95405)

8:52 AM PDT on August 31, 2015 (GMT -0700)
Annadel Heights | | Change Station
CLOSE
Current Station
Personal Weather Station
Location: Santa Rosa, CA
Elevation: 340 ft
Nearby Weather Stations

Elev 340 ft 38.43 °N, 122.66 °W | Updated 23 seconds ago

Clear
Clear
62.4 °F
Feels Like 62.4 °F
N
0.0
Wind Variable Wind from West
Gusts 0.0 mph

Today
High -- | Low -- °F
--% Chance of Precip.
Yesterday
High -- | Low -- °F
Precip. -- in
6:39 AM 7:42 PM
Waning Gibbous, 95% visible
Pressure 29.90 in
Visibility 10.0 miles
Clouds Few 15000 ft
Dew Point 52 °F
Humidity 69%
Rainfall 0.00 in
Snow Depth Not available.
UV 1 out of 12
Pollen 6.60 out of 12
Air Quality Not available.
Flu Activity Not available.
METAR KSTS 311453Z 27003KT 10SM FEW150 14/11 A2992 RMK AO2 SLP124 T01440111 53005
Pressure 29.90 in
Visibility 10.0 miles
Clouds Few 15000 ft
Dew Point 52 °F
Humidity 69%
Rainfall 0.00 in
Snow Depth Not available.
UV 1 out of 12
Pollen 6.60 out of 12
Air Quality Not available.
Flu Activity Not available.
METAR KSTS 311453Z 27003KT 10SM FEW150 14/11 A2992 RMK AO2 SLP124 T01440111 53005

10-Day Weather Forecast

×

Almanac

Astronomy

Aug. 31, 2015 Rise Set
Actual Time
Civil Twilight
Nautical Twilight
Astronomical Twilight
Moon
Length of Visible Light
Length of Day
Tomorrow will be .
, % of the Moon is Illuminated

Today's Extremes

State Highs State Lows

Community

WunderPhotos

Upload Photos

1,851,282 photos uploaded!

WunderBlogs® & News

Nearby

Air Quality

  Air Quality AQ Index Pollutant
Not available.

Snow Depth

Station Depth Elevation

Earthquake Activity

City Distance Mag. Time & Date
Minimum magnitude displayed is 2.5.

Coastal Water Temperatures

Place Temperature

Stations

Nearby Weather Stations

Station Location Temp. Windchill Dew Point Humidity Wind Precip. Elev Updated Type